ISABELLA DAM (ISB)

Elevation: 2635' · KERN R basin · Operator: US Army Corps of Engineers

Provisional data, subject to change.
Query executed Tuesday at 19:53:33   clock

Select a sensor type for a plot of data.
Note: Reservoir Flows are daily averages.

Earlier

Date RES ELE    STORAGE    RES CHG    TOC STO    ABV TOC    OUTFLOW    INFLOW    FNF    PPT INC    TEMP MN    TEMP MX    WINDLEN    EVP PAN   
 FEET   AF   AF   AF   AF   CFS   CFS   CFS   INCHES   DEG F   DEG F   MILES   INCHES  
06/30/2014 2539.50 73074 -471 361250 -288176 378 208 208 0.00 19 40 128 0.41
07/01/2014 2539.40 72638 -436 361250 -288612 363 202 202 0.00 20 40 122 0.41
07/02/2014 2539.20 72137 -501 361250 -289113 369 154 154 0.00 23 39 129 0.41
07/03/2014 2539.10 71639 -498 361250 -289611 387 162 162 0.00 22 38 122 0.40
07/04/2014 2538.90 70979 -660 361250 -290271 421 97 97 0.00 20 39 134 0.41
07/05/2014 2538.70 70356 -623 361250 -290894 426 151 151 0.00 22 38 151 0.42
07/06/2014 2538.50 69737 -619 361250 -291513 406 158 158 0.00 25 38 173 0.38
07/07/2014 2538.30 69283 -454 361250 -291967 350 217 217 0.00 21 38 134 0.40
07/08/2014 2538.20 68832 -451 361250 -292418 316 165 165 0.00 21 40 137 0.41
07/09/2014 2538.10 68414 -418 361250 -292836 324 148 148 0.00 23 38 165 0.44
07/10/2014 2537.90 67967 -447 361250 -293283 332 144 144 0.00 22 36 168 0.42
07/11/2014 2537.80 67426 -541 361250 -293824 351 102 102 0.00 21 34 154 0.38
07/12/2014 2537.60 66920 -506 361250 -- 354 135 135 0.00 20 34 154 0.35
07/13/2014 2537.50 66511 -409 361250 -294739 315 184 90 e 0.00 20 40 172 0.43
07/14/2014 2537.30 66042 -469 361250 -295208 325 123 123 0.00 24 40 129 0.32
07/15/2014 2537.10 65326 -716 361250 -295924 -- -- 90 e -- -- -- -- --
07/16/2014 2536.90 64586 -740 361250 -296664 441 87 87 0.00 23 36 170 0.40
07/17/2014 2536.60 63943 -643 361250 -297307 391 156 156 0.00 21 33 215 0.39
07/18/2014 2536.50 63426 -517 361250 -297824 338 168 168 0.00 19 34 168 0.37
07/19/2014 2536.30 62942 -484 361250 -298308 348 130 130 0.00 21 36 116 0.30
07/20/2014 2536.10 62341 -601 361250 -298909 360 74 74 0.00 20 36 145 0.35
07/21/2014 2535.90 61833 -508 361250 -299417 336 137 137 0.00 20 34 152 0.36
07/22/2014 2535.80 61477 -356 361250 -299773 286 192 192 0.00 20 36 139 0.38
07/23/2014 2535.70 61004 -473 361250 -300246 277 84 84 0.00 20 33 187 0.39
07/24/2014 2535.50 60680 -324 361250 -300570 251 151 151 0.00 19 36 147 0.38
07/25/2014 2535.40 60358 -322 361250 -300892 230 124 124 0.00 18 40 106 0.37
07/26/2014 2535.30 60007 -351 361250 -301243 226 89 89 0.00 23 40 111 0.36
07/27/2014 2535.20 59717 -290 361250 -301533 203 114 114 0.00 26 38 146 0.38
07/28/2014 2535.10 59514 -203 361250 -301736 172 137 137 0.00 25 32 123 0.21
07/29/2014 -- -- -- -- -- -- -- -- -- -- -- -- --

Later | Latest

Warning! This data is preliminary and subject to revision.

Download Data Now Download Data Now | Show ISB Map | Plot ISB Data | 1 Month ISB Data | Real-Time ISB Data | ISB Info